Decoded Metar for UKDE (MOKRAYA in UKRAINE) (IATA:OZH) | Meteo·Mobile Aviation Weather
aviador You're here:

UKDE Decoded Metar

MOKRAYA in UKRAINE
Report Time2018-11-12 17:30:00
UTC Time2018-11-12 17:40:18
Flight Rules vfr VFR
Wind040° at 8 kt
W.Decomp.*RWY 02: 7.7 kt HW 2.2 kt RCW
W.Rank040° ranks 1
Current wind is above 040° avg. (7.9)
Visibility9999 m
Phenomena:N/A
Clouds:Broken 030 Hf
Expected CloudBase > 2,400 ft AGL from Temp-Dew spread
Ceiling3,000 ft
Temp-3°C (ISA -17)
Dew Point-9°C (64% RH)
AAT-8.8°C
QNH1037 hPa
Density Alt-2,523 ft
Elevation371 ft
Report Wrong Elevation
Raw Report
UKDE 121730Z 04004MPS 360V080 9999 BKN030 M03/M09 Q1037
R02R/CLRD70 NOSIG=

Extra information for UKDE:More info

Metar Taf Metar & Taf Last 4 Metars F.Rules Stats Wind Profile Meteogram Temp Stats Airport Information Weather charts Add Link Nearby VenuesMetar ALERT Operation Metar Decoded Social comments